sensor_id;sensor_type;location;lat;lon;timestamp;P1;durP1;ratioP1;P2;durP2;ratioP2
10335;SDS011;5213;53.548;9.930;2023-04-09T00:00:34;56.35;;;35.08;;
10335;SDS011;5213;53.548;9.930;2023-04-09T00:03:00;60.22;;;36.30;;
10335;SDS011;5213;53.548;9.930;2023-04-09T00:05:26;56.63;;;36.67;;
10335;SDS011;5213;53.548;9.930;2023-04-09T00:07:52;58.85;;;35.85;;
10335;SDS011;5213;53.548;9.930;2023-04-09T00:10:18;60.00;;;37.90;;
10335;SDS011;5213;53.548;9.930;2023-04-09T00:12:45;56.95;;;35.58;;
10335;SDS011;5213;53.548;9.930;2023-04-09T00:15:11;56.67;;;35.72;;
10335;SDS011;5213;53.548;9.930;2023-04-09T00:17:37;57.50;;;35.20;;
10335;SDS011;5213;53.548;9.930;2023-04-09T00:20:03;54.88;;;33.17;;
10335;SDS011;5213;53.548;9.930;2023-04-09T00:22:29;58.67;;;34.53;;
10335;SDS011;5213;53.548;9.930;2023-04-09T00:24:56;57.83;;;35.10;;
10335;SDS011;5213;53.548;9.930;2023-04-09T00:27:22;55.45;;;33.70;;
10335;SDS011;5213;53.548;9.930;2023-04-09T00:29:48;53.15;;;32.58;;
10335;SDS011;5213;53.548;9.930;2023-04-09T00:32:14;53.45;;;32.70;;
10335;SDS011;5213;53.548;9.930;2023-04-09T00:34:40;55.58;;;33.67;;
10335;SDS011;5213;53.548;9.930;2023-04-09T00:37:06;60.38;;;35.90;;
10335;SDS011;5213;53.548;9.930;2023-04-09T00:39:32;62.00;;;35.33;;
10335;SDS011;5213;53.548;9.930;2023-04-09T00:41:59;60.40;;;35.40;;
10335;SDS011;5213;53.548;9.930;2023-04-09T00:44:28;57.88;;;35.97;;
10335;SDS011;5213;53.548;9.930;2023-04-09T00:46:54;59.63;;;36.40;;
10335;SDS011;5213;53.548;9.930;2023-04-09T00:49:20;58.22;;;35.20;;
10335;SDS011;5213;53.548;9.930;2023-04-09T00:51:48;59.70;;;35.08;;
10335;SDS011;5213;53.548;9.930;2023-04-09T00:54:15;57.97;;;35.28;;
10335;SDS011;5213;53.548;9.930;2023-04-09T00:56:41;57.17;;;35.15;;
10335;SDS011;5213;53.548;9.930;2023-04-09T00:59:07;52.58;;;33.42;;
10335;SDS011;5213;53.548;9.930;2023-04-09T01:01:33;57.03;;;33.67;;
10335;SDS011;5213;53.548;9.930;2023-04-09T01:04:00;56.95;;;35.28;;
10335;SDS011;5213;53.548;9.930;2023-04-09T01:06:36;54.85;;;33.97;;
10335;SDS011;5213;53.548;9.930;2023-04-09T01:14:32;51.10;;;31.45;;
10335;SDS011;5213;53.548;9.930;2023-04-09T01:17:11;52.65;;;30.08;;
10335;SDS011;5213;53.548;9.930;2023-04-09T01:19:42;56.33;;;32.38;;
10335;SDS011;5213;53.548;9.930;2023-04-09T01:22:15;51.08;;;31.15;;
10335;SDS011;5213;53.548;9.930;2023-04-09T01:25:02;47.47;;;29.50;;
10335;SDS011;5213;53.548;9.930;2023-04-09T01:27:33;53.08;;;31.15;;
10335;SDS011;5213;53.548;9.930;2023-04-09T01:30:02;51.20;;;31.27;;
10335;SDS011;5213;53.548;9.930;2023-04-09T01:32:29;53.88;;;31.75;;
10335;SDS011;5213;53.548;9.930;2023-04-09T01:34:57;50.60;;;31.60;;
10335;SDS011;5213;53.548;9.930;2023-04-09T01:37:24;53.53;;;31.05;;
10335;SDS011;5213;53.548;9.930;2023-04-09T01:39:51;45.63;;;28.52;;
10335;SDS011;5213;53.548;9.930;2023-04-09T01:42:17;44.60;;;28.02;;
10335;SDS011;5213;53.548;9.930;2023-04-09T01:44:44;45.63;;;27.52;;
10335;SDS011;5213;53.548;9.930;2023-04-09T01:47:11;46.00;;;27.50;;
10335;SDS011;5213;53.548;9.930;2023-04-09T01:49:37;42.72;;;26.27;;
10335;SDS011;5213;53.548;9.930;2023-04-09T01:52:04;42.10;;;25.52;;
10335;SDS011;5213;53.548;9.930;2023-04-09T01:54:31;38.33;;;23.05;;
10335;SDS011;5213;53.548;9.930;2023-04-09T01:56:57;36.17;;;21.90;;
10335;SDS011;5213;53.548;9.930;2023-04-09T01:59:23;31.60;;;20.23;;
10335;SDS011;5213;53.548;9.930;2023-04-09T02:01:52;33.17;;;20.45;;
10335;SDS011;5213;53.548;9.930;2023-04-09T02:04:21;32.03;;;20.73;;
10335;SDS011;5213;53.548;9.930;2023-04-09T02:09:17;34.53;;;21.98;;
10335;SDS011;5213;53.548;9.930;2023-04-09T02:11:45;33.15;;;21.92;;
10335;SDS011;5213;53.548;9.930;2023-04-09T02:14:12;32.83;;;21.13;;
10335;SDS011;5213;53.548;9.930;2023-04-09T02:16:39;34.35;;;21.35;;
10335;SDS011;5213;53.548;9.930;2023-04-09T02:19:06;32.72;;;20.48;;
10335;SDS011;5213;53.548;9.930;2023-04-09T02:21:32;37.55;;;23.35;;
10335;SDS011;5213;53.548;9.930;2023-04-09T02:23:58;36.33;;;24.08;;
10335;SDS011;5213;53.548;9.930;2023-04-09T02:26:24;37.38;;;24.08;;
10335;SDS011;5213;53.548;9.930;2023-04-09T02:28:50;35.45;;;23.63;;
10335;SDS011;5213;53.548;9.930;2023-04-09T02:31:16;36.40;;;22.92;;
10335;SDS011;5213;53.548;9.930;2023-04-09T02:33:42;38.22;;;24.25;;
10335;SDS011;5213;53.548;9.930;2023-04-09T02:36:12;42.70;;;24.92;;
10335;SDS011;5213;53.548;9.930;2023-04-09T02:38:41;39.75;;;24.65;;
10335;SDS011;5213;53.548;9.930;2023-04-09T02:41:07;38.85;;;24.75;;
10335;SDS011;5213;53.548;9.930;2023-04-09T02:43:34;41.63;;;26.52;;
10335;SDS011;5213;53.548;9.930;2023-04-09T02:46:00;41.28;;;25.80;;
10335;SDS011;5213;53.548;9.930;2023-04-09T02:48:26;39.58;;;24.23;;
10335;SDS011;5213;53.548;9.930;2023-04-09T02:50:52;44.30;;;24.92;;
10335;SDS011;5213;53.548;9.930;2023-04-09T02:53:18;37.28;;;24.00;;
10335;SDS011;5213;53.548;9.930;2023-04-09T02:55:45;37.72;;;24.13;;
10335;SDS011;5213;53.548;9.930;2023-04-09T02:58:11;39.88;;;23.70;;
10335;SDS011;5213;53.548;9.930;2023-04-09T03:00:37;43.00;;;24.90;;
10335;SDS011;5213;53.548;9.930;2023-04-09T03:03:03;41.58;;;24.60;;
10335;SDS011;5213;53.548;9.930;2023-04-09T03:05:30;38.25;;;24.02;;
10335;SDS011;5213;53.548;9.930;2023-04-09T03:07:56;40.88;;;25.33;;
10335;SDS011;5213;53.548;9.930;2023-04-09T03:10:22;35.92;;;23.98;;
10335;SDS011;5213;53.548;9.930;2023-04-09T03:12:48;35.33;;;23.65;;
10335;SDS011;5213;53.548;9.930;2023-04-09T03:15:14;37.75;;;24.75;;
10335;SDS011;5213;53.548;9.930;2023-04-09T03:17:40;35.22;;;22.60;;
10335;SDS011;5213;53.548;9.930;2023-04-09T03:20:06;37.15;;;22.83;;
10335;SDS011;5213;53.548;9.930;2023-04-09T03:22:36;33.28;;;22.02;;
10335;SDS011;5213;53.548;9.930;2023-04-09T03:25:02;34.78;;;21.38;;
10335;SDS011;5213;53.548;9.930;2023-04-09T03:27:28;31.98;;;21.15;;
10335;SDS011;5213;53.548;9.930;2023-04-09T03:29:55;34.03;;;21.77;;
10335;SDS011;5213;53.548;9.930;2023-04-09T03:32:21;32.38;;;21.30;;
10335;SDS011;5213;53.548;9.930;2023-04-09T03:34:47;36.55;;;21.63;;
10335;SDS011;5213;53.548;9.930;2023-04-09T03:37:13;33.05;;;21.73;;
10335;SDS011;5213;53.548;9.930;2023-04-09T03:39:39;33.10;;;22.55;;
10335;SDS011;5213;53.548;9.930;2023-04-09T03:42:06;34.05;;;22.38;;
10335;SDS011;5213;53.548;9.930;2023-04-09T03:44:32;35.35;;;22.33;;
10335;SDS011;5213;53.548;9.930;2023-04-09T03:46:58;34.22;;;22.42;;
10335;SDS011;5213;53.548;9.930;2023-04-09T03:49:24;38.35;;;23.23;;
10335;SDS011;5213;53.548;9.930;2023-04-09T03:51:50;39.58;;;24.52;;
10335;SDS011;5213;53.548;9.930;2023-04-09T03:54:16;39.83;;;25.38;;
10335;SDS011;5213;53.548;9.930;2023-04-09T03:56:42;41.42;;;25.98;;
10335;SDS011;5213;53.548;9.930;2023-04-09T03:59:08;36.00;;;23.90;;
10335;SDS011;5213;53.548;9.930;2023-04-09T04:01:34;41.92;;;26.20;;
10335;SDS011;5213;53.548;9.930;2023-04-09T04:04:00;40.58;;;25.55;;
10335;SDS011;5213;53.548;9.930;2023-04-09T04:06:26;44.90;;;27.50;;
10335;SDS011;5213;53.548;9.930;2023-04-09T04:08:52;40.75;;;26.48;;
10335;SDS011;5213;53.548;9.930;2023-04-09T04:11:18;42.42;;;25.65;;
10335;SDS011;5213;53.548;9.930;2023-04-09T04:13:44;40.28;;;25.30;;
10335;SDS011;5213;53.548;9.930;2023-04-09T04:16:11;43.22;;;26.48;;
10335;SDS011;5213;53.548;9.930;2023-04-09T04:18:37;44.38;;;27.50;;
10335;SDS011;5213;53.548;9.930;2023-04-09T04:21:03;44.78;;;29.00;;
10335;SDS011;5213;53.548;9.930;2023-04-09T04:23:29;41.83;;;30.15;;
10335;SDS011;5213;53.548;9.930;2023-04-09T04:25:55;43.22;;;28.95;;
10335;SDS011;5213;53.548;9.930;2023-04-09T04:28:22;43.53;;;26.98;;
10335;SDS011;5213;53.548;9.930;2023-04-09T04:30:48;43.35;;;27.02;;
10335;SDS011;5213;53.548;9.930;2023-04-09T04:33:14;39.15;;;25.92;;
10335;SDS011;5213;53.548;9.930;2023-04-09T04:35:40;41.80;;;25.70;;
10335;SDS011;5213;53.548;9.930;2023-04-09T04:38:06;41.25;;;25.77;;
10335;SDS011;5213;53.548;9.930;2023-04-09T04:40:32;41.42;;;26.65;;
10335;SDS011;5213;53.548;9.930;2023-04-09T04:42:58;47.13;;;27.92;;
10335;SDS011;5213;53.548;9.930;2023-04-09T04:45:24;42.88;;;27.13;;
10335;SDS011;5213;53.548;9.930;2023-04-09T04:47:50;46.17;;;28.02;;
10335;SDS011;5213;53.548;9.930;2023-04-09T04:50:16;44.35;;;28.30;;
10335;SDS011;5213;53.548;9.930;2023-04-09T04:52:42;47.55;;;29.13;;
10335;SDS011;5213;53.548;9.930;2023-04-09T04:55:08;54.00;;;30.33;;
10335;SDS011;5213;53.548;9.930;2023-04-09T04:57:34;53.83;;;29.83;;
10335;SDS011;5213;53.548;9.930;2023-04-09T05:00:00;51.15;;;30.63;;
10335;SDS011;5213;53.548;9.930;2023-04-09T05:02:26;55.47;;;30.65;;
10335;SDS011;5213;53.548;9.930;2023-04-09T05:04:52;53.10;;;30.63;;
10335;SDS011;5213;53.548;9.930;2023-04-09T05:07:18;53.50;;;31.05;;
10335;SDS011;5213;53.548;9.930;2023-04-09T05:09:44;51.03;;;29.92;;
10335;SDS011;5213;53.548;9.930;2023-04-09T05:12:11;53.50;;;30.27;;
10335;SDS011;5213;53.548;9.930;2023-04-09T05:14:37;55.85;;;30.85;;
10335;SDS011;5213;53.548;9.930;2023-04-09T05:17:03;52.75;;;29.63;;
10335;SDS011;5213;53.548;9.930;2023-04-09T05:19:29;48.40;;;29.00;;
10335;SDS011;5213;53.548;9.930;2023-04-09T05:21:55;51.30;;;29.08;;
10335;SDS011;5213;53.548;9.930;2023-04-09T05:24:21;48.47;;;28.60;;
10335;SDS011;5213;53.548;9.930;2023-04-09T05:26:47;47.88;;;27.75;;
10335;SDS011;5213;53.548;9.930;2023-04-09T05:29:13;47.22;;;27.27;;
10335;SDS011;5213;53.548;9.930;2023-04-09T05:31:41;49.50;;;27.70;;
10335;SDS011;5213;53.548;9.930;2023-04-09T05:34:07;45.00;;;27.55;;
10335;SDS011;5213;53.548;9.930;2023-04-09T05:36:33;47.95;;;28.60;;
10335;SDS011;5213;53.548;9.930;2023-04-09T05:38:59;48.30;;;27.83;;
10335;SDS011;5213;53.548;9.930;2023-04-09T05:41:25;52.45;;;29.67;;
10335;SDS011;5213;53.548;9.930;2023-04-09T05:43:51;50.35;;;28.63;;
10335;SDS011;5213;53.548;9.930;2023-04-09T05:46:17;46.72;;;28.20;;
10335;SDS011;5213;53.548;9.930;2023-04-09T05:48:43;48.53;;;28.25;;
10335;SDS011;5213;53.548;9.930;2023-04-09T05:51:09;51.75;;;27.95;;
10335;SDS011;5213;53.548;9.930;2023-04-09T05:53:35;49.42;;;28.27;;
10335;SDS011;5213;53.548;9.930;2023-04-09T05:56:02;46.42;;;29.10;;
10335;SDS011;5213;53.548;9.930;2023-04-09T05:58:28;47.83;;;27.48;;
10335;SDS011;5213;53.548;9.930;2023-04-09T06:00:54;53.75;;;29.33;;
10335;SDS011;5213;53.548;9.930;2023-04-09T06:03:20;48.83;;;28.35;;
10335;SDS011;5213;53.548;9.930;2023-04-09T06:05:46;52.15;;;27.90;;
10335;SDS011;5213;53.548;9.930;2023-04-09T06:08:12;47.03;;;28.05;;
10335;SDS011;5213;53.548;9.930;2023-04-09T06:10:38;44.85;;;27.85;;
10335;SDS011;5213;53.548;9.930;2023-04-09T06:13:04;49.10;;;27.55;;
10335;SDS011;5213;53.548;9.930;2023-04-09T06:15:30;47.65;;;28.00;;
10335;SDS011;5213;53.548;9.930;2023-04-09T06:17:56;46.40;;;26.83;;
10335;SDS011;5213;53.548;9.930;2023-04-09T06:20:22;45.20;;;26.27;;
10335;SDS011;5213;53.548;9.930;2023-04-09T06:22:48;42.95;;;27.05;;
10335;SDS011;5213;53.548;9.930;2023-04-09T06:25:15;41.50;;;26.02;;
10335;SDS011;5213;53.548;9.930;2023-04-09T06:27:41;43.08;;;27.20;;
10335;SDS011;5213;53.548;9.930;2023-04-09T06:30:07;44.65;;;26.83;;
10335;SDS011;5213;53.548;9.930;2023-04-09T06:32:33;46.95;;;27.00;;
10335;SDS011;5213;53.548;9.930;2023-04-09T06:35:00;45.80;;;27.73;;
10335;SDS011;5213;53.548;9.930;2023-04-09T06:37:26;50.90;;;29.13;;
10335;SDS011;5213;53.548;9.930;2023-04-09T06:39:52;46.28;;;28.30;;
10335;SDS011;5213;53.548;9.930;2023-04-09T06:42:18;46.15;;;27.77;;
10335;SDS011;5213;53.548;9.930;2023-04-09T06:44:44;47.67;;;27.00;;
10335;SDS011;5213;53.548;9.930;2023-04-09T06:47:10;45.28;;;27.65;;
10335;SDS011;5213;53.548;9.930;2023-04-09T06:49:36;47.20;;;26.88;;
10335;SDS011;5213;53.548;9.930;2023-04-09T06:52:02;43.60;;;25.08;;
10335;SDS011;5213;53.548;9.930;2023-04-09T06:54:28;42.65;;;26.13;;
10335;SDS011;5213;53.548;9.930;2023-04-09T06:56:54;43.60;;;26.52;;
10335;SDS011;5213;53.548;9.930;2023-04-09T06:59:20;45.00;;;26.23;;
10335;SDS011;5213;53.548;9.930;2023-04-09T07:01:46;46.25;;;26.50;;
10335;SDS011;5213;53.548;9.930;2023-04-09T07:04:13;45.85;;;26.55;;
10335;SDS011;5213;53.548;9.930;2023-04-09T07:06:39;43.45;;;26.30;;
10335;SDS011;5213;53.548;9.930;2023-04-09T07:09:05;48.83;;;27.17;;
10335;SDS011;5213;53.548;9.930;2023-04-09T07:11:31;49.13;;;27.73;;
10335;SDS011;5213;53.548;9.930;2023-04-09T07:13:58;51.20;;;28.65;;
10335;SDS011;5213;53.548;9.930;2023-04-09T07:16:24;44.75;;;27.00;;
10335;SDS011;5213;53.548;9.930;2023-04-09T07:18:50;48.35;;;26.55;;
10335;SDS011;5213;53.548;9.930;2023-04-09T07:21:16;46.33;;;26.23;;
10335;SDS011;5213;53.548;9.930;2023-04-09T07:23:43;49.65;;;26.70;;
10335;SDS011;5213;53.548;9.930;2023-04-09T07:26:09;43.25;;;26.45;;
10335;SDS011;5213;53.548;9.930;2023-04-09T07:28:35;46.00;;;26.13;;
10335;SDS011;5213;53.548;9.930;2023-04-09T07:31:01;48.65;;;26.95;;
10335;SDS011;5213;53.548;9.930;2023-04-09T07:33:28;47.03;;;27.10;;
10335;SDS011;5213;53.548;9.930;2023-04-09T07:35:54;47.78;;;26.42;;
10335;SDS011;5213;53.548;9.930;2023-04-09T07:38:20;47.35;;;28.13;;
10335;SDS011;5213;53.548;9.930;2023-04-09T07:40:46;54.70;;;28.90;;
10335;SDS011;5213;53.548;9.930;2023-04-09T07:43:12;46.25;;;28.30;;
10335;SDS011;5213;53.548;9.930;2023-04-09T07:45:38;47.35;;;27.55;;
10335;SDS011;5213;53.548;9.930;2023-04-09T07:48:04;50.05;;;28.08;;
10335;SDS011;5213;53.548;9.930;2023-04-09T07:50:33;47.72;;;27.73;;
10335;SDS011;5213;53.548;9.930;2023-04-09T07:52:59;46.20;;;26.83;;
10335;SDS011;5213;53.548;9.930;2023-04-09T07:55:25;46.38;;;28.00;;
10335;SDS011;5213;53.548;9.930;2023-04-09T07:57:52;46.17;;;27.33;;
10335;SDS011;5213;53.548;9.930;2023-04-09T08:00:18;46.70;;;27.52;;
10335;SDS011;5213;53.548;9.930;2023-04-09T08:02:44;47.40;;;29.73;;
10335;SDS011;5213;53.548;9.930;2023-04-09T08:05:10;47.78;;;29.13;;
10335;SDS011;5213;53.548;9.930;2023-04-09T08:07:36;50.03;;;30.05;;
10335;SDS011;5213;53.548;9.930;2023-04-09T08:10:03;44.15;;;27.63;;
10335;SDS011;5213;53.548;9.930;2023-04-09T08:12:29;43.63;;;27.42;;
10335;SDS011;5213;53.548;9.930;2023-04-09T08:14:55;43.63;;;26.73;;
10335;SDS011;5213;53.548;9.930;2023-04-09T08:17:21;44.85;;;28.10;;
10335;SDS011;5213;53.548;9.930;2023-04-09T08:19:48;41.65;;;26.90;;
10335;SDS011;5213;53.548;9.930;2023-04-09T08:22:14;44.13;;;27.73;;
10335;SDS011;5213;53.548;9.930;2023-04-09T08:24:41;39.78;;;25.50;;
10335;SDS011;5213;53.548;9.930;2023-04-09T08:27:07;44.80;;;26.65;;
10335;SDS011;5213;53.548;9.930;2023-04-09T08:29:34;42.10;;;26.98;;
10335;SDS011;5213;53.548;9.930;2023-04-09T08:32:00;42.05;;;26.40;;
10335;SDS011;5213;53.548;9.930;2023-04-09T08:34:26;43.85;;;26.27;;
10335;SDS011;5213;53.548;9.930;2023-04-09T08:36:52;42.75;;;26.35;;
10335;SDS011;5213;53.548;9.930;2023-04-09T08:39:18;42.13;;;25.70;;
10335;SDS011;5213;53.548;9.930;2023-04-09T08:41:44;38.85;;;24.38;;
10335;SDS011;5213;53.548;9.930;2023-04-09T08:44:12;37.17;;;23.92;;
10335;SDS011;5213;53.548;9.930;2023-04-09T08:46:38;36.25;;;22.98;;
10335;SDS011;5213;53.548;9.930;2023-04-09T08:49:04;31.70;;;21.92;;
10335;SDS011;5213;53.548;9.930;2023-04-09T08:51:30;30.95;;;20.40;;
10335;SDS011;5213;53.548;9.930;2023-04-09T08:53:57;30.77;;;20.83;;
10335;SDS011;5213;53.548;9.930;2023-04-09T08:56:23;30.48;;;19.60;;
10335;SDS011;5213;53.548;9.930;2023-04-09T08:58:50;30.20;;;20.17;;
10335;SDS011;5213;53.548;9.930;2023-04-09T09:01:29;30.70;;;21.98;;
10335;SDS011;5213;53.548;9.930;2023-04-09T09:06:22;30.83;;;21.95;;
10335;SDS011;5213;53.548;9.930;2023-04-09T09:08:58;22.88;;;18.75;;
10335;SDS011;5213;53.548;9.930;2023-04-09T09:11:25;24.00;;;17.52;;
10335;SDS011;5213;53.548;9.930;2023-04-09T09:24:50;27.50;;;19.60;;
10335;SDS011;5213;53.548;9.930;2023-04-09T09:27:29;27.63;;;21.52;;
10335;SDS011;5213;53.548;9.930;2023-04-09T09:29:56;24.25;;;19.90;;
10335;SDS011;5213;53.548;9.930;2023-04-09T09:32:22;23.13;;;18.92;;
10335;SDS011;5213;53.548;9.930;2023-04-09T09:35:04;23.40;;;18.13;;
10335;SDS011;5213;53.548;9.930;2023-04-09T09:37:31;22.10;;;17.30;;
10335;SDS011;5213;53.548;9.930;2023-04-09T09:39:57;22.50;;;16.80;;
10335;SDS011;5213;53.548;9.930;2023-04-09T09:42:24;22.55;;;17.17;;
10335;SDS011;5213;53.548;9.930;2023-04-09T09:44:52;22.25;;;17.60;;
10335;SDS011;5213;53.548;9.930;2023-04-09T09:47:19;24.17;;;18.23;;
10335;SDS011;5213;53.548;9.930;2023-04-09T09:49:48;21.92;;;16.65;;
10335;SDS011;5213;53.548;9.930;2023-04-09T09:52:15;22.85;;;17.75;;
10335;SDS011;5213;53.548;9.930;2023-04-09T09:54:42;25.55;;;20.13;;
10335;SDS011;5213;53.548;9.930;2023-04-09T09:57:10;26.40;;;19.30;;
10335;SDS011;5213;53.548;9.930;2023-04-09T09:59:40;24.63;;;19.80;;
10335;SDS011;5213;53.548;9.930;2023-04-09T10:02:10;25.48;;;19.65;;
10335;SDS011;5213;53.548;9.930;2023-04-09T10:04:40;27.33;;;21.35;;
10335;SDS011;5213;53.548;9.930;2023-04-09T10:07:07;28.02;;;21.10;;
10335;SDS011;5213;53.548;9.930;2023-04-09T10:09:34;28.45;;;20.38;;
10335;SDS011;5213;53.548;9.930;2023-04-09T10:12:02;28.13;;;21.38;;
10335;SDS011;5213;53.548;9.930;2023-04-09T10:14:29;30.42;;;22.63;;
10335;SDS011;5213;53.548;9.930;2023-04-09T10:16:55;29.02;;;23.10;;
10335;SDS011;5213;53.548;9.930;2023-04-09T10:19:22;30.58;;;22.77;;
10335;SDS011;5213;53.548;9.930;2023-04-09T10:22:03;29.75;;;22.25;;
10335;SDS011;5213;53.548;9.930;2023-04-09T10:24:31;30.23;;;22.75;;
10335;SDS011;5213;53.548;9.930;2023-04-09T10:27:10;29.00;;;23.27;;
10335;SDS011;5213;53.548;9.930;2023-04-09T10:29:43;31.80;;;25.35;;
10335;SDS011;5213;53.548;9.930;2023-04-09T10:32:09;32.22;;;24.88;;
10335;SDS011;5213;53.548;9.930;2023-04-09T10:34:40;28.98;;;22.85;;
10335;SDS011;5213;53.548;9.930;2023-04-09T10:37:07;28.98;;;22.90;;
10335;SDS011;5213;53.548;9.930;2023-04-09T10:39:36;29.45;;;22.73;;
10335;SDS011;5213;53.548;9.930;2023-04-09T10:42:07;27.55;;;21.30;;
10335;SDS011;5213;53.548;9.930;2023-04-09T10:44:33;27.83;;;21.67;;
10335;SDS011;5213;53.548;9.930;2023-04-09T10:47:02;27.67;;;23.17;;
10335;SDS011;5213;53.548;9.930;2023-04-09T10:49:48;28.05;;;22.73;;
10335;SDS011;5213;53.548;9.930;2023-04-09T10:52:14;28.38;;;22.45;;
10335;SDS011;5213;53.548;9.930;2023-04-09T10:54:41;29.52;;;22.77;;
10335;SDS011;5213;53.548;9.930;2023-04-09T10:59:38;29.25;;;23.08;;
10335;SDS011;5213;53.548;9.930;2023-04-09T11:02:09;28.38;;;22.35;;
10335;SDS011;5213;53.548;9.930;2023-04-09T11:05:00;29.88;;;23.33;;
10335;SDS011;5213;53.548;9.930;2023-04-09T11:07:29;29.73;;;22.58;;
10335;SDS011;5213;53.548;9.930;2023-04-09T11:09:57;26.58;;;21.13;;
10335;SDS011;5213;53.548;9.930;2023-04-09T11:12:23;26.88;;;20.50;;
10335;SDS011;5213;53.548;9.930;2023-04-09T11:14:49;25.70;;;19.90;;
10335;SDS011;5213;53.548;9.930;2023-04-09T11:17:17;25.88;;;20.85;;
10335;SDS011;5213;53.548;9.930;2023-04-09T11:19:43;28.40;;;22.58;;
10335;SDS011;5213;53.548;9.930;2023-04-09T11:22:09;28.08;;;22.27;;
10335;SDS011;5213;53.548;9.930;2023-04-09T11:24:39;27.83;;;22.58;;
10335;SDS011;5213;53.548;9.930;2023-04-09T11:27:05;26.65;;;21.02;;
10335;SDS011;5213;53.548;9.930;2023-04-09T11:29:31;25.83;;;21.27;;
10335;SDS011;5213;53.548;9.930;2023-04-09T11:31:59;25.77;;;20.67;;
10335;SDS011;5213;53.548;9.930;2023-04-09T11:34:28;24.75;;;20.10;;
10335;SDS011;5213;53.548;9.930;2023-04-09T11:36:54;29.50;;;22.52;;
10335;SDS011;5213;53.548;9.930;2023-04-09T11:39:23;24.30;;;18.85;;
10335;SDS011;5213;53.548;9.930;2023-04-09T11:41:49;23.90;;;19.17;;
10335;SDS011;5213;53.548;9.930;2023-04-09T11:44:15;24.88;;;19.98;;
10335;SDS011;5213;53.548;9.930;2023-04-09T11:46:41;23.73;;;19.08;;
10335;SDS011;5213;53.548;9.930;2023-04-09T11:49:08;24.23;;;18.48;;
10335;SDS011;5213;53.548;9.930;2023-04-09T11:51:34;22.30;;;17.85;;
10335;SDS011;5213;53.548;9.930;2023-04-09T11:54:01;24.45;;;18.27;;
10335;SDS011;5213;53.548;9.930;2023-04-09T11:56:28;23.02;;;18.00;;
10335;SDS011;5213;53.548;9.930;2023-04-09T11:58:55;21.83;;;17.75;;
10335;SDS011;5213;53.548;9.930;2023-04-09T12:01:21;25.65;;;19.70;;
10335;SDS011;5213;53.548;9.930;2023-04-09T12:03:53;26.88;;;20.30;;
10335;SDS011;5213;53.548;9.930;2023-04-09T12:06:20;23.50;;;18.88;;
10335;SDS011;5213;53.548;9.930;2023-04-09T12:08:47;23.52;;;18.65;;
10335;SDS011;5213;53.548;9.930;2023-04-09T12:11:17;26.20;;;18.48;;
10335;SDS011;5213;53.548;9.930;2023-04-09T12:13:44;32.42;;;25.08;;
10335;SDS011;5213;53.548;9.930;2023-04-09T12:16:11;40.88;;;30.73;;
10335;SDS011;5213;53.548;9.930;2023-04-09T12:18:37;37.13;;;28.90;;
10335;SDS011;5213;53.548;9.930;2023-04-09T12:21:03;42.50;;;31.83;;
10335;SDS011;5213;53.548;9.930;2023-04-09T12:23:30;33.53;;;26.08;;
10335;SDS011;5213;53.548;9.930;2023-04-09T12:25:57;37.63;;;29.30;;
10335;SDS011;5213;53.548;9.930;2023-04-09T12:28:26;33.17;;;26.33;;
10335;SDS011;5213;53.548;9.930;2023-04-09T12:30:52;28.52;;;22.73;;
10335;SDS011;5213;53.548;9.930;2023-04-09T12:33:19;33.63;;;24.17;;
10335;SDS011;5213;53.548;9.930;2023-04-09T12:35:45;35.05;;;25.30;;
10335;SDS011;5213;53.548;9.930;2023-04-09T12:38:12;33.75;;;26.27;;
10335;SDS011;5213;53.548;9.930;2023-04-09T12:40:38;29.67;;;22.15;;
10335;SDS011;5213;53.548;9.930;2023-04-09T12:43:04;29.52;;;22.20;;
10335;SDS011;5213;53.548;9.930;2023-04-09T12:45:30;24.20;;;18.92;;
10335;SDS011;5213;53.548;9.930;2023-04-09T12:47:57;22.45;;;18.30;;
10335;SDS011;5213;53.548;9.930;2023-04-09T12:50:23;20.17;;;16.80;;
10335;SDS011;5213;53.548;9.930;2023-04-09T12:52:49;24.50;;;20.30;;
10335;SDS011;5213;53.548;9.930;2023-04-09T12:55:15;25.65;;;19.10;;
10335;SDS011;5213;53.548;9.930;2023-04-09T12:57:42;26.02;;;21.08;;
10335;SDS011;5213;53.548;9.930;2023-04-09T13:00:09;24.58;;;18.55;;
10335;SDS011;5213;53.548;9.930;2023-04-09T13:02:35;24.95;;;19.27;;
10335;SDS011;5213;53.548;9.930;2023-04-09T13:05:01;23.05;;;18.27;;
10335;SDS011;5213;53.548;9.930;2023-04-09T13:07:28;25.52;;;19.95;;
10335;SDS011;5213;53.548;9.930;2023-04-09T13:09:55;23.67;;;18.77;;
10335;SDS011;5213;53.548;9.930;2023-04-09T13:12:21;23.58;;;18.40;;
10335;SDS011;5213;53.548;9.930;2023-04-09T13:14:47;21.45;;;17.55;;
10335;SDS011;5213;53.548;9.930;2023-04-09T13:17:14;24.13;;;17.67;;
10335;SDS011;5213;53.548;9.930;2023-04-09T13:19:40;25.65;;;19.08;;
10335;SDS011;5213;53.548;9.930;2023-04-09T13:22:06;21.23;;;17.85;;
10335;SDS011;5213;53.548;9.930;2023-04-09T13:24:36;22.92;;;17.75;;
10335;SDS011;5213;53.548;9.930;2023-04-09T13:27:03;21.30;;;17.30;;
10335;SDS011;5213;53.548;9.930;2023-04-09T13:29:29;22.30;;;16.48;;
10335;SDS011;5213;53.548;9.930;2023-04-09T13:31:56;20.98;;;17.08;;
10335;SDS011;5213;53.548;9.930;2023-04-09T13:34:22;23.13;;;16.80;;
10335;SDS011;5213;53.548;9.930;2023-04-09T13:36:49;22.00;;;17.40;;
10335;SDS011;5213;53.548;9.930;2023-04-09T13:39:15;19.60;;;16.08;;
10335;SDS011;5213;53.548;9.930;2023-04-09T13:41:41;21.42;;;16.77;;
10335;SDS011;5213;53.548;9.930;2023-04-09T13:44:07;21.20;;;16.13;;
10335;SDS011;5213;53.548;9.930;2023-04-09T13:46:33;17.73;;;14.90;;
10335;SDS011;5213;53.548;9.930;2023-04-09T13:48:59;19.80;;;16.42;;
10335;SDS011;5213;53.548;9.930;2023-04-09T13:51:26;21.27;;;16.13;;
10335;SDS011;5213;53.548;9.930;2023-04-09T13:53:53;18.05;;;15.98;;
10335;SDS011;5213;53.548;9.930;2023-04-09T13:56:19;19.75;;;16.35;;
10335;SDS011;5213;53.548;9.930;2023-04-09T13:58:45;20.17;;;16.23;;
10335;SDS011;5213;53.548;9.930;2023-04-09T14:01:12;23.50;;;15.30;;
10335;SDS011;5213;53.548;9.930;2023-04-09T14:03:38;17.55;;;14.88;;
10335;SDS011;5213;53.548;9.930;2023-04-09T14:06:05;19.98;;;14.68;;
10335;SDS011;5213;53.548;9.930;2023-04-09T14:08:32;19.38;;;14.80;;
10335;SDS011;5213;53.548;9.930;2023-04-09T14:10:58;18.02;;;15.02;;
10335;SDS011;5213;53.548;9.930;2023-04-09T14:13:24;19.88;;;15.65;;
10335;SDS011;5213;53.548;9.930;2023-04-09T14:15:50;17.15;;;14.43;;
10335;SDS011;5213;53.548;9.930;2023-04-09T14:18:16;18.02;;;15.00;;
10335;SDS011;5213;53.548;9.930;2023-04-09T14:20:42;18.08;;;14.68;;
10335;SDS011;5213;53.548;9.930;2023-04-09T14:23:09;19.40;;;15.38;;
10335;SDS011;5213;53.548;9.930;2023-04-09T14:25:35;17.83;;;14.40;;
10335;SDS011;5213;53.548;9.930;2023-04-09T14:28:01;16.27;;;14.27;;
10335;SDS011;5213;53.548;9.930;2023-04-09T14:30:27;19.70;;;15.90;;
10335;SDS011;5213;53.548;9.930;2023-04-09T14:32:53;17.45;;;14.88;;
10335;SDS011;5213;53.548;9.930;2023-04-09T14:35:19;16.73;;;14.93;;
10335;SDS011;5213;53.548;9.930;2023-04-09T14:37:45;18.25;;;14.80;;
10335;SDS011;5213;53.548;9.930;2023-04-09T14:40:11;17.58;;;14.60;;
10335;SDS011;5213;53.548;9.930;2023-04-09T14:42:38;17.52;;;14.40;;
10335;SDS011;5213;53.548;9.930;2023-04-09T14:45:04;19.20;;;15.23;;
10335;SDS011;5213;53.548;9.930;2023-04-09T14:47:31;18.38;;;14.75;;
10335;SDS011;5213;53.548;9.930;2023-04-09T14:49:57;16.00;;;14.02;;
10335;SDS011;5213;53.548;9.930;2023-04-09T14:52:23;16.90;;;13.85;;
10335;SDS011;5213;53.548;9.930;2023-04-09T14:54:49;17.48;;;14.68;;